Terminal Aerodrome Forecast
Issued by NWS

Current Version | Previous Version | Graphics & Text | Print | Product List | Glossary Off
Versions: 1 2 3 4 5 6 7 8 9 10 11 12 13 14 15 16 17 18 19 20 21 22 23 24 25

000
FTUS41 KRNK 051139
TAFLWB
TAF
KLWB 051139Z 0512/0612 27005KT P6SM SCT025 BKN140
      TEMPO 0512/0515 BKN025
     FM051600 27008KT P6SM SCT040 SCT120 BKN250
     FM052300 28003KT P6SM SCT050 BKN120 OVC250
     FM060700 04003KT 6SM -SHRA BR BKN050 OVC120=

USA.gov is the U.S. government's official web portal to all federal, state and local government web resources and services.